Teuge International Airport

EHTE · Gelderland, 荷兰

使用的METAR站距离机场43 km。
罗盘
风向 的 风向 的 风向 到 风向 160° Teuge International Airport 8/26
风: 13 kt, 4 beaufort

4 kt

12 kt
改变
0 ft 1.000 2.000 3.000 4.000 5.000
没有观察到明显的云
METAR EHLE 021255Z AUTO 16013KT 130V190 9999 NSC 12/03 Q1000 NOSIG

METAR Teuge International Airport - EHTE/TGE

Teuge International Airport是,荷兰中的中型机场。 该机场位于纬度52,24284和经度6,05039。 该机场有一条跑道: 8/26. 本场的ICAO机场代码为EHTE。 该机场的IATA代码为TGE。 机场在Amsterdam FIR中。

该航空气象观测是针对Lelystad Airport在2024年3月2日 13:55, 当地时间进行的。

机场观察

风向为160°,速度为13 kt。 风向在130°和190°之间变化。

可见度为10 km 或者更多。

有没有观察到明显的云。 没有观察到天花板。

温度和风寒是12 °C。 露点为3 °C,相对湿度为54%。 海平面上的气压为1000 hPa (QNH)。

白天

今天,太阳从07:18升起,在18:17降落。 这适用于Teuge International Airport,世界夏令时可能有所不同。 当地时间与世界标准时间之间的时差为+1 小时。 当前,没有夏令时有效。

公司介绍

在这个机场,你可以找到飞行学校。 这个机场上的公司有Vliegles.nl, Vliegschool Special Air Services, E-Flight Academy 和 Flight School Teuge。

体会

在这个机场有飞行课程。 你可以在没有任何经验的情况下预订飞行课程。 在Teuge International Airport预订最多的飞行课程类型是Cessna flying lesson。 这些课程的价格从€ 159开始。 在这里阅读更多关于Cessna flying lesson的信息。你也可以在这个网站上进行预订。

跑道

Id 标题 侧风 逆风 侧风 %
8/26 086°-266° 12 kt 4 kt 96 %

逆风成分最大的方向会被突出显示,并用于横风计算。 这并不一定意味着这个方向在使用。

乌云

- NSC 没有观察到明显的云

温度 & 天气

温度 12 °C
露点 3 °C
相对湿度 54%
Kp-index 0 (0-9)

白天

日出
07:20
中午
12:49
日落
18:19 (3:56)

小工具

你想在你的网站上有一个关于Teuge International Airport的当前航空天气(METAR)的小部件吗?

显示HTML代码
?>